sensor_id;sensor_type;location;lat;lon;timestamp;P1;durP1;ratioP1;P2;durP2;ratioP2
37907;SDS011;23740;51.550;6.846;2024-01-30T00:00:08;6.15;;;3.70;;
37907;SDS011;23740;51.550;6.846;2024-01-30T00:02:38;6.75;;;3.80;;
37907;SDS011;23740;51.550;6.846;2024-01-30T00:05:06;6.38;;;4.13;;
37907;SDS011;23740;51.550;6.846;2024-01-30T00:07:34;6.30;;;4.25;;
37907;SDS011;23740;51.550;6.846;2024-01-30T00:10:03;7.32;;;4.53;;
37907;SDS011;23740;51.550;6.846;2024-01-30T00:12:32;6.97;;;4.00;;
37907;SDS011;23740;51.550;6.846;2024-01-30T00:15:00;8.05;;;4.53;;
37907;SDS011;23740;51.550;6.846;2024-01-30T00:17:30;6.65;;;4.38;;
37907;SDS011;23740;51.550;6.846;2024-01-30T00:20:00;4.65;;;3.40;;
37907;SDS011;23740;51.550;6.846;2024-01-30T00:22:31;8.75;;;4.45;;
37907;SDS011;23740;51.550;6.846;2024-01-30T00:24:59;5.30;;;3.80;;
37907;SDS011;23740;51.550;6.846;2024-01-30T00:27:27;8.32;;;4.30;;
37907;SDS011;23740;51.550;6.846;2024-01-30T00:29:55;6.05;;;4.07;;
37907;SDS011;23740;51.550;6.846;2024-01-30T00:32:23;7.38;;;4.53;;
37907;SDS011;23740;51.550;6.846;2024-01-30T00:34:51;7.43;;;4.32;;
37907;SDS011;23740;51.550;6.846;2024-01-30T00:37:20;6.72;;;4.47;;
37907;SDS011;23740;51.550;6.846;2024-01-30T00:39:48;8.80;;;3.90;;
37907;SDS011;23740;51.550;6.846;2024-01-30T00:42:16;6.88;;;4.80;;
37907;SDS011;23740;51.550;6.846;2024-01-30T00:44:43;8.00;;;4.80;;
37907;SDS011;23740;51.550;6.846;2024-01-30T00:47:11;7.63;;;4.30;;
37907;SDS011;23740;51.550;6.846;2024-01-30T00:49:39;8.32;;;4.72;;
37907;SDS011;23740;51.550;6.846;2024-01-30T00:52:07;7.13;;;4.38;;
37907;SDS011;23740;51.550;6.846;2024-01-30T00:54:36;8.07;;;4.78;;
37907;SDS011;23740;51.550;6.846;2024-01-30T00:57:04;9.75;;;4.40;;
37907;SDS011;23740;51.550;6.846;2024-01-30T00:59:32;8.27;;;4.35;;
37907;SDS011;23740;51.550;6.846;2024-01-30T01:02:00;8.30;;;5.15;;
37907;SDS011;23740;51.550;6.846;2024-01-30T01:04:28;7.97;;;5.25;;
37907;SDS011;23740;51.550;6.846;2024-01-30T01:06:56;10.57;;;4.93;;
37907;SDS011;23740;51.550;6.846;2024-01-30T01:09:24;6.47;;;4.20;;
37907;SDS011;23740;51.550;6.846;2024-01-30T01:11:54;6.07;;;3.90;;
37907;SDS011;23740;51.550;6.846;2024-01-30T01:14:22;8.45;;;4.68;;
37907;SDS011;23740;51.550;6.846;2024-01-30T01:16:50;6.22;;;4.22;;
37907;SDS011;23740;51.550;6.846;2024-01-30T01:19:18;5.45;;;4.20;;
37907;SDS011;23740;51.550;6.846;2024-01-30T01:21:46;6.30;;;4.43;;
37907;SDS011;23740;51.550;6.846;2024-01-30T01:24:14;7.50;;;4.90;;
37907;SDS011;23740;51.550;6.846;2024-01-30T01:26:42;5.95;;;4.25;;
37907;SDS011;23740;51.550;6.846;2024-01-30T01:29:11;9.52;;;3.92;;
37907;SDS011;23740;51.550;6.846;2024-01-30T01:31:39;5.90;;;4.70;;
37907;SDS011;23740;51.550;6.846;2024-01-30T01:34:10;9.48;;;5.10;;
37907;SDS011;23740;51.550;6.846;2024-01-30T01:36:38;8.45;;;4.75;;
37907;SDS011;23740;51.550;6.846;2024-01-30T01:39:06;5.82;;;3.80;;
37907;SDS011;23740;51.550;6.846;2024-01-30T01:41:35;8.23;;;4.60;;
37907;SDS011;23740;51.550;6.846;2024-01-30T01:44:03;6.72;;;4.60;;
37907;SDS011;23740;51.550;6.846;2024-01-30T01:46:33;7.00;;;4.80;;
37907;SDS011;23740;51.550;6.846;2024-01-30T01:49:02;5.15;;;4.03;;
37907;SDS011;23740;51.550;6.846;2024-01-30T01:51:31;9.30;;;4.88;;
37907;SDS011;23740;51.550;6.846;2024-01-30T01:54:00;6.63;;;4.38;;
37907;SDS011;23740;51.550;6.846;2024-01-30T01:56:29;6.82;;;4.25;;
37907;SDS011;23740;51.550;6.846;2024-01-30T01:58:59;6.97;;;3.88;;
37907;SDS011;23740;51.550;6.846;2024-01-30T02:01:27;7.43;;;5.13;;
37907;SDS011;23740;51.550;6.846;2024-01-30T02:03:58;6.40;;;4.35;;
37907;SDS011;23740;51.550;6.846;2024-01-30T02:06:26;8.63;;;4.88;;
37907;SDS011;23740;51.550;6.846;2024-01-30T02:08:54;7.43;;;4.97;;
37907;SDS011;23740;51.550;6.846;2024-01-30T02:11:22;7.80;;;5.03;;
37907;SDS011;23740;51.550;6.846;2024-01-30T02:13:50;9.77;;;4.72;;
37907;SDS011;23740;51.550;6.846;2024-01-30T02:16:18;8.02;;;4.57;;
37907;SDS011;23740;51.550;6.846;2024-01-30T02:18:46;7.65;;;4.80;;
37907;SDS011;23740;51.550;6.846;2024-01-30T02:21:16;7.55;;;4.65;;
37907;SDS011;23740;51.550;6.846;2024-01-30T02:23:44;8.00;;;4.28;;
37907;SDS011;23740;51.550;6.846;2024-01-30T02:26:14;7.13;;;4.40;;
37907;SDS011;23740;51.550;6.846;2024-01-30T02:28:41;5.53;;;3.10;;
37907;SDS011;23740;51.550;6.846;2024-01-30T02:31:09;8.18;;;4.47;;
37907;SDS011;23740;51.550;6.846;2024-01-30T02:33:37;8.98;;;5.28;;
37907;SDS011;23740;51.550;6.846;2024-01-30T02:36:06;7.40;;;4.20;;
37907;SDS011;23740;51.550;6.846;2024-01-30T02:38:35;9.77;;;4.95;;
37907;SDS011;23740;51.550;6.846;2024-01-30T02:41:03;7.63;;;4.88;;
37907;SDS011;23740;51.550;6.846;2024-01-30T02:43:31;6.63;;;4.75;;
37907;SDS011;23740;51.550;6.846;2024-01-30T02:45:59;9.18;;;4.43;;
37907;SDS011;23740;51.550;6.846;2024-01-30T02:48:27;8.32;;;4.85;;
37907;SDS011;23740;51.550;6.846;2024-01-30T02:50:55;7.70;;;4.80;;
37907;SDS011;23740;51.550;6.846;2024-01-30T02:53:25;9.85;;;4.82;;
37907;SDS011;23740;51.550;6.846;2024-01-30T02:55:54;7.80;;;5.35;;
37907;SDS011;23740;51.550;6.846;2024-01-30T02:58:22;9.88;;;5.28;;
37907;SDS011;23740;51.550;6.846;2024-01-30T03:00:50;8.35;;;5.07;;
37907;SDS011;23740;51.550;6.846;2024-01-30T03:03:18;7.25;;;4.82;;
37907;SDS011;23740;51.550;6.846;2024-01-30T03:05:45;8.85;;;4.65;;
37907;SDS011;23740;51.550;6.846;2024-01-30T03:08:13;6.38;;;4.45;;
37907;SDS011;23740;51.550;6.846;2024-01-30T03:10:41;7.65;;;3.45;;
37907;SDS011;23740;51.550;6.846;2024-01-30T03:13:10;8.70;;;4.75;;
37907;SDS011;23740;51.550;6.846;2024-01-30T03:15:38;9.00;;;4.43;;
37907;SDS011;23740;51.550;6.846;2024-01-30T03:18:06;9.75;;;5.03;;
37907;SDS011;23740;51.550;6.846;2024-01-30T03:20:34;7.25;;;4.20;;
37907;SDS011;23740;51.550;6.846;2024-01-30T03:23:02;7.45;;;4.45;;
37907;SDS011;23740;51.550;6.846;2024-01-30T03:25:29;7.72;;;4.55;;
37907;SDS011;23740;51.550;6.846;2024-01-30T03:27:57;6.82;;;4.63;;
37907;SDS011;23740;51.550;6.846;2024-01-30T03:30:26;6.15;;;4.35;;
37907;SDS011;23740;51.550;6.846;2024-01-30T03:32:54;6.82;;;4.53;;
37907;SDS011;23740;51.550;6.846;2024-01-30T03:35:22;8.55;;;5.07;;
37907;SDS011;23740;51.550;6.846;2024-01-30T03:37:50;7.88;;;4.28;;
37907;SDS011;23740;51.550;6.846;2024-01-30T03:40:18;7.28;;;4.85;;
37907;SDS011;23740;51.550;6.846;2024-01-30T03:42:45;9.57;;;4.78;;
37907;SDS011;23740;51.550;6.846;2024-01-30T03:45:13;7.85;;;4.38;;
37907;SDS011;23740;51.550;6.846;2024-01-30T03:47:44;8.23;;;4.80;;
37907;SDS011;23740;51.550;6.846;2024-01-30T03:50:12;7.13;;;4.63;;
37907;SDS011;23740;51.550;6.846;2024-01-30T03:52:40;7.30;;;5.30;;
37907;SDS011;23740;51.550;6.846;2024-01-30T03:55:07;7.10;;;4.82;;
37907;SDS011;23740;51.550;6.846;2024-01-30T03:57:37;8.60;;;4.60;;
37907;SDS011;23740;51.550;6.846;2024-01-30T04:00:05;6.90;;;4.45;;
37907;SDS011;23740;51.550;6.846;2024-01-30T04:02:34;6.25;;;4.20;;
37907;SDS011;23740;51.550;6.846;2024-01-30T04:05:04;6.10;;;4.20;;
37907;SDS011;23740;51.550;6.846;2024-01-30T04:07:33;7.75;;;4.35;;
37907;SDS011;23740;51.550;6.846;2024-01-30T04:10:01;7.75;;;4.38;;
37907;SDS011;23740;51.550;6.846;2024-01-30T04:12:32;6.90;;;3.97;;
37907;SDS011;23740;51.550;6.846;2024-01-30T04:14:59;8.15;;;4.43;;
37907;SDS011;23740;51.550;6.846;2024-01-30T04:17:27;6.80;;;3.92;;
37907;SDS011;23740;51.550;6.846;2024-01-30T04:19:55;6.55;;;4.38;;
37907;SDS011;23740;51.550;6.846;2024-01-30T04:22:25;6.47;;;3.67;;
37907;SDS011;23740;51.550;6.846;2024-01-30T04:24:52;8.40;;;4.43;;
37907;SDS011;23740;51.550;6.846;2024-01-30T04:27:20;6.22;;;4.05;;
37907;SDS011;23740;51.550;6.846;2024-01-30T04:29:48;9.73;;;4.20;;
37907;SDS011;23740;51.550;6.846;2024-01-30T04:32:16;5.68;;;4.18;;
37907;SDS011;23740;51.550;6.846;2024-01-30T04:34:47;8.00;;;4.28;;
37907;SDS011;23740;51.550;6.846;2024-01-30T04:37:15;6.72;;;4.32;;
37907;SDS011;23740;51.550;6.846;2024-01-30T04:39:44;6.80;;;3.95;;
37907;SDS011;23740;51.550;6.846;2024-01-30T04:42:12;7.20;;;3.58;;
37907;SDS011;23740;51.550;6.846;2024-01-30T04:44:40;7.10;;;4.65;;
37907;SDS011;23740;51.550;6.846;2024-01-30T04:47:07;7.63;;;4.35;;
37907;SDS011;23740;51.550;6.846;2024-01-30T04:49:37;5.75;;;3.97;;
37907;SDS011;23740;51.550;6.846;2024-01-30T04:52:06;7.07;;;4.35;;
37907;SDS011;23740;51.550;6.846;2024-01-30T04:54:33;7.53;;;3.95;;
37907;SDS011;23740;51.550;6.846;2024-01-30T04:57:05;7.38;;;4.72;;
37907;SDS011;23740;51.550;6.846;2024-01-30T04:59:35;9.00;;;4.45;;
37907;SDS011;23740;51.550;6.846;2024-01-30T05:02:03;8.38;;;4.30;;
37907;SDS011;23740;51.550;6.846;2024-01-30T05:04:31;7.05;;;4.35;;
37907;SDS011;23740;51.550;6.846;2024-01-30T05:06:59;7.38;;;4.40;;
37907;SDS011;23740;51.550;6.846;2024-01-30T05:09:27;8.02;;;4.32;;
37907;SDS011;23740;51.550;6.846;2024-01-30T05:11:55;7.95;;;3.83;;
37907;SDS011;23740;51.550;6.846;2024-01-30T05:14:24;5.63;;;4.20;;
37907;SDS011;23740;51.550;6.846;2024-01-30T05:16:52;6.68;;;3.75;;
37907;SDS011;23740;51.550;6.846;2024-01-30T05:19:20;8.10;;;4.00;;
37907;SDS011;23740;51.550;6.846;2024-01-30T05:21:49;5.13;;;3.92;;
37907;SDS011;23740;51.550;6.846;2024-01-30T05:24:17;6.30;;;3.72;;
37907;SDS011;23740;51.550;6.846;2024-01-30T05:26:47;6.32;;;4.15;;
37907;SDS011;23740;51.550;6.846;2024-01-30T05:29:14;6.82;;;4.20;;
37907;SDS011;23740;51.550;6.846;2024-01-30T05:31:43;4.88;;;3.78;;
37907;SDS011;23740;51.550;6.846;2024-01-30T05:34:11;5.78;;;3.75;;
37907;SDS011;23740;51.550;6.846;2024-01-30T05:36:39;8.15;;;4.40;;
37907;SDS011;23740;51.550;6.846;2024-01-30T05:39:07;8.38;;;4.30;;
37907;SDS011;23740;51.550;6.846;2024-01-30T05:41:35;7.57;;;4.00;;
37907;SDS011;23740;51.550;6.846;2024-01-30T05:44:03;6.68;;;3.95;;
37907;SDS011;23740;51.550;6.846;2024-01-30T05:46:31;5.43;;;4.10;;
37907;SDS011;23740;51.550;6.846;2024-01-30T05:49:00;6.07;;;3.88;;
37907;SDS011;23740;51.550;6.846;2024-01-30T05:51:28;6.38;;;4.25;;
37907;SDS011;23740;51.550;6.846;2024-01-30T05:53:56;6.70;;;3.80;;
37907;SDS011;23740;51.550;6.846;2024-01-30T05:56:23;6.68;;;3.97;;
37907;SDS011;23740;51.550;6.846;2024-01-30T05:58:51;6.93;;;3.58;;
37907;SDS011;23740;51.550;6.846;2024-01-30T06:01:19;7.80;;;4.13;;
37907;SDS011;23740;51.550;6.846;2024-01-30T06:03:47;8.52;;;4.55;;
37907;SDS011;23740;51.550;6.846;2024-01-30T06:06:16;5.32;;;3.40;;
37907;SDS011;23740;51.550;6.846;2024-01-30T06:08:44;5.75;;;3.65;;
37907;SDS011;23740;51.550;6.846;2024-01-30T06:11:12;6.80;;;3.88;;
37907;SDS011;23740;51.550;6.846;2024-01-30T06:13:39;6.15;;;3.88;;
37907;SDS011;23740;51.550;6.846;2024-01-30T06:16:09;6.32;;;3.97;;
37907;SDS011;23740;51.550;6.846;2024-01-30T06:18:37;4.75;;;4.15;;
37907;SDS011;23740;51.550;6.846;2024-01-30T06:21:05;9.63;;;3.55;;
37907;SDS011;23740;51.550;6.846;2024-01-30T06:23:37;5.82;;;4.25;;
37907;SDS011;23740;51.550;6.846;2024-01-30T06:26:06;6.70;;;4.13;;
37907;SDS011;23740;51.550;6.846;2024-01-30T06:28:34;7.57;;;3.78;;
37907;SDS011;23740;51.550;6.846;2024-01-30T06:31:02;6.35;;;3.97;;
37907;SDS011;23740;51.550;6.846;2024-01-30T06:33:30;6.40;;;3.83;;
37907;SDS011;23740;51.550;6.846;2024-01-30T06:35:58;7.68;;;4.03;;
37907;SDS011;23740;51.550;6.846;2024-01-30T06:38:26;6.05;;;3.72;;
37907;SDS011;23740;51.550;6.846;2024-01-30T06:40:55;6.57;;;4.00;;
37907;SDS011;23740;51.550;6.846;2024-01-30T06:43:23;6.32;;;3.92;;
37907;SDS011;23740;51.550;6.846;2024-01-30T06:45:51;6.70;;;4.22;;
37907;SDS011;23740;51.550;6.846;2024-01-30T06:48:19;5.20;;;3.90;;
37907;SDS011;23740;51.550;6.846;2024-01-30T06:50:47;6.35;;;4.10;;
37907;SDS011;23740;51.550;6.846;2024-01-30T06:53:15;4.97;;;3.42;;
37907;SDS011;23740;51.550;6.846;2024-01-30T06:55:43;5.47;;;3.92;;
37907;SDS011;23740;51.550;6.846;2024-01-30T06:58:12;6.20;;;3.92;;
37907;SDS011;23740;51.550;6.846;2024-01-30T07:00:40;6.63;;;4.05;;
37907;SDS011;23740;51.550;6.846;2024-01-30T07:03:08;6.63;;;4.05;;
37907;SDS011;23740;51.550;6.846;2024-01-30T07:05:36;6.93;;;3.97;;
37907;SDS011;23740;51.550;6.846;2024-01-30T07:08:04;6.00;;;3.65;;
37907;SDS011;23740;51.550;6.846;2024-01-30T07:10:32;5.75;;;4.05;;
37907;SDS011;23740;51.550;6.846;2024-01-30T07:13:00;6.22;;;3.95;;
37907;SDS011;23740;51.550;6.846;2024-01-30T07:15:29;5.72;;;3.70;;
37907;SDS011;23740;51.550;6.846;2024-01-30T07:17:57;8.50;;;4.07;;
37907;SDS011;23740;51.550;6.846;2024-01-30T07:20:25;9.18;;;4.22;;
37907;SDS011;23740;51.550;6.846;2024-01-30T07:22:53;6.03;;;3.53;;
37907;SDS011;23740;51.550;6.846;2024-01-30T07:25:24;6.22;;;4.15;;
37907;SDS011;23740;51.550;6.846;2024-01-30T07:27:53;6.07;;;4.47;;
37907;SDS011;23740;51.550;6.846;2024-01-30T07:30:21;6.43;;;4.30;;
37907;SDS011;23740;51.550;6.846;2024-01-30T07:32:51;5.78;;;4.10;;
37907;SDS011;23740;51.550;6.846;2024-01-30T07:35:19;5.57;;;3.97;;
37907;SDS011;23740;51.550;6.846;2024-01-30T07:37:47;6.20;;;3.63;;
37907;SDS011;23740;51.550;6.846;2024-01-30T07:40:15;6.07;;;3.90;;
37907;SDS011;23740;51.550;6.846;2024-01-30T07:42:43;7.70;;;4.18;;
37907;SDS011;23740;51.550;6.846;2024-01-30T07:45:11;7.30;;;4.35;;
37907;SDS011;23740;51.550;6.846;2024-01-30T07:47:38;7.95;;;4.22;;
37907;SDS011;23740;51.550;6.846;2024-01-30T07:50:08;6.95;;;4.13;;
37907;SDS011;23740;51.550;6.846;2024-01-30T07:52:39;6.85;;;3.92;;
37907;SDS011;23740;51.550;6.846;2024-01-30T07:55:07;6.40;;;3.88;;
37907;SDS011;23740;51.550;6.846;2024-01-30T07:57:35;6.63;;;3.63;;
37907;SDS011;23740;51.550;6.846;2024-01-30T08:00:03;6.75;;;3.85;;
37907;SDS011;23740;51.550;6.846;2024-01-30T08:02:35;5.43;;;4.03;;
37907;SDS011;23740;51.550;6.846;2024-01-30T08:05:03;6.45;;;3.65;;
37907;SDS011;23740;51.550;6.846;2024-01-30T08:07:32;5.53;;;3.50;;
37907;SDS011;23740;51.550;6.846;2024-01-30T08:10:00;6.40;;;3.97;;
37907;SDS011;23740;51.550;6.846;2024-01-30T08:12:28;4.25;;;2.83;;
37907;SDS011;23740;51.550;6.846;2024-01-30T08:14:56;5.57;;;3.33;;
37907;SDS011;23740;51.550;6.846;2024-01-30T08:17:23;4.28;;;3.50;;
37907;SDS011;23740;51.550;6.846;2024-01-30T08:19:51;7.28;;;3.47;;
37907;SDS011;23740;51.550;6.846;2024-01-30T08:22:19;5.55;;;4.13;;
37907;SDS011;23740;51.550;6.846;2024-01-30T08:24:51;7.60;;;3.60;;
37907;SDS011;23740;51.550;6.846;2024-01-30T08:27:19;6.03;;;3.53;;
37907;SDS011;23740;51.550;6.846;2024-01-30T08:29:47;4.78;;;3.55;;
37907;SDS011;23740;51.550;6.846;2024-01-30T08:32:16;6.88;;;3.90;;
37907;SDS011;23740;51.550;6.846;2024-01-30T08:34:47;6.25;;;3.38;;
37907;SDS011;23740;51.550;6.846;2024-01-30T08:37:14;4.95;;;3.55;;
37907;SDS011;23740;51.550;6.846;2024-01-30T08:39:43;5.65;;;3.92;;
37907;SDS011;23740;51.550;6.846;2024-01-30T08:42:12;7.82;;;4.30;;
37907;SDS011;23740;51.550;6.846;2024-01-30T08:44:40;6.25;;;3.67;;
37907;SDS011;23740;51.550;6.846;2024-01-30T08:47:08;6.88;;;3.95;;
37907;SDS011;23740;51.550;6.846;2024-01-30T08:49:36;7.55;;;3.38;;
37907;SDS011;23740;51.550;6.846;2024-01-30T08:52:04;7.10;;;3.45;;
37907;SDS011;23740;51.550;6.846;2024-01-30T08:54:33;6.68;;;3.50;;
37907;SDS011;23740;51.550;6.846;2024-01-30T08:57:01;6.25;;;3.78;;
37907;SDS011;23740;51.550;6.846;2024-01-30T08:59:31;7.95;;;4.03;;
37907;SDS011;23740;51.550;6.846;2024-01-30T09:02:02;6.35;;;3.60;;
37907;SDS011;23740;51.550;6.846;2024-01-30T09:04:38;6.28;;;3.50;;
37907;SDS011;23740;51.550;6.846;2024-01-30T09:07:06;7.43;;;3.97;;
37907;SDS011;23740;51.550;6.846;2024-01-30T09:09:37;6.28;;;3.60;;
37907;SDS011;23740;51.550;6.846;2024-01-30T09:12:06;4.53;;;3.30;;
37907;SDS011;23740;51.550;6.846;2024-01-30T09:14:37;8.88;;;4.18;;
37907;SDS011;23740;51.550;6.846;2024-01-30T09:17:06;6.07;;;3.83;;
37907;SDS011;23740;51.550;6.846;2024-01-30T09:19:34;5.97;;;3.25;;
37907;SDS011;23740;51.550;6.846;2024-01-30T09:22:03;5.80;;;3.58;;
37907;SDS011;23740;51.550;6.846;2024-01-30T09:24:31;7.05;;;3.80;;
37907;SDS011;23740;51.550;6.846;2024-01-30T09:26:59;6.88;;;4.00;;
37907;SDS011;23740;51.550;6.846;2024-01-30T09:29:27;6.90;;;3.63;;
37907;SDS011;23740;51.550;6.846;2024-01-30T09:31:56;8.30;;;4.15;;
37907;SDS011;23740;51.550;6.846;2024-01-30T09:34:25;5.50;;;3.70;;
37907;SDS011;23740;51.550;6.846;2024-01-30T09:36:53;5.40;;;3.70;;
37907;SDS011;23740;51.550;6.846;2024-01-30T09:39:20;4.47;;;3.95;;
37907;SDS011;23740;51.550;6.846;2024-01-30T09:41:49;6.70;;;4.10;;
37907;SDS011;23740;51.550;6.846;2024-01-30T09:44:19;6.82;;;3.85;;
37907;SDS011;23740;51.550;6.846;2024-01-30T09:46:47;6.45;;;4.05;;
37907;SDS011;23740;51.550;6.846;2024-01-30T09:49:17;5.75;;;3.83;;
37907;SDS011;23740;51.550;6.846;2024-01-30T09:51:47;5.88;;;3.75;;
37907;SDS011;23740;51.550;6.846;2024-01-30T09:54:15;7.18;;;4.25;;
37907;SDS011;23740;51.550;6.846;2024-01-30T09:56:47;5.50;;;3.58;;
37907;SDS011;23740;51.550;6.846;2024-01-30T09:59:15;7.20;;;4.18;;
37907;SDS011;23740;51.550;6.846;2024-01-30T10:01:43;6.07;;;4.53;;
37907;SDS011;23740;51.550;6.846;2024-01-30T10:04:11;5.75;;;3.88;;
37907;SDS011;23740;51.550;6.846;2024-01-30T10:06:40;7.97;;;4.55;;
37907;SDS011;23740;51.550;6.846;2024-01-30T10:09:16;6.20;;;3.50;;
37907;SDS011;23740;51.550;6.846;2024-01-30T10:11:43;9.27;;;4.47;;
37907;SDS011;23740;51.550;6.846;2024-01-30T10:14:11;7.07;;;3.70;;
37907;SDS011;23740;51.550;6.846;2024-01-30T10:16:41;9.10;;;4.05;;
37907;SDS011;23740;51.550;6.846;2024-01-30T10:19:11;8.13;;;4.40;;
37907;SDS011;23740;51.550;6.846;2024-01-30T10:21:41;5.75;;;3.40;;
37907;SDS011;23740;51.550;6.846;2024-01-30T10:24:09;8.65;;;4.63;;
37907;SDS011;23740;51.550;6.846;2024-01-30T10:26:39;6.97;;;4.35;;
37907;SDS011;23740;51.550;6.846;2024-01-30T10:29:06;7.95;;;4.53;;
37907;SDS011;23740;51.550;6.846;2024-01-30T10:31:34;6.40;;;4.40;;
37907;SDS011;23740;51.550;6.846;2024-01-30T10:34:03;7.32;;;4.07;;
37907;SDS011;23740;51.550;6.846;2024-01-30T10:36:46;7.30;;;4.43;;
37907;SDS011;23740;51.550;6.846;2024-01-30T10:39:17;6.22;;;4.30;;
37907;SDS011;23740;51.550;6.846;2024-01-30T10:41:45;7.40;;;4.22;;
37907;SDS011;23740;51.550;6.846;2024-01-30T10:44:16;7.07;;;4.13;;
37907;SDS011;23740;51.550;6.846;2024-01-30T10:46:48;9.95;;;4.80;;
37907;SDS011;23740;51.550;6.846;2024-01-30T10:49:20;10.18;;;4.25;;
37907;SDS011;23740;51.550;6.846;2024-01-30T10:51:50;8.43;;;5.45;;
37907;SDS011;23740;51.550;6.846;2024-01-30T10:54:19;9.00;;;4.30;;
37907;SDS011;23740;51.550;6.846;2024-01-30T10:56:47;8.07;;;4.38;;
37907;SDS011;23740;51.550;6.846;2024-01-30T10:59:16;9.35;;;5.45;;
37907;SDS011;23740;51.550;6.846;2024-01-30T11:01:51;8.23;;;4.53;;
37907;SDS011;23740;51.550;6.846;2024-01-30T11:04:19;8.05;;;4.68;;
37907;SDS011;23740;51.550;6.846;2024-01-30T11:06:50;5.28;;;3.38;;
37907;SDS011;23740;51.550;6.846;2024-01-30T11:09:18;7.05;;;4.30;;
37907;SDS011;23740;51.550;6.846;2024-01-30T11:11:49;7.03;;;5.22;;
37907;SDS011;23740;51.550;6.846;2024-01-30T11:14:22;10.27;;;5.03;;
37907;SDS011;23740;51.550;6.846;2024-01-30T11:16:51;9.40;;;4.82;;
37907;SDS011;23740;51.550;6.846;2024-01-30T11:19:22;6.80;;;4.07;;
37907;SDS011;23740;51.550;6.846;2024-01-30T11:21:56;6.93;;;5.00;;
37907;SDS011;23740;51.550;6.846;2024-01-30T11:24:24;6.03;;;5.05;;
37907;SDS011;23740;51.550;6.846;2024-01-30T11:26:55;6.57;;;4.80;;
37907;SDS011;23740;51.550;6.846;2024-01-30T11:29:24;7.05;;;4.18;;
37907;SDS011;23740;51.550;6.846;2024-01-30T11:31:52;7.30;;;5.22;;
37907;SDS011;23740;51.550;6.846;2024-01-30T11:34:21;10.05;;;5.28;;
37907;SDS011;23740;51.550;6.846;2024-01-30T11:36:51;7.25;;;4.65;;
37907;SDS011;23740;51.550;6.846;2024-01-30T11:39:23;11.85;;;5.00;;
37907;SDS011;23740;51.550;6.846;2024-01-30T11:41:52;7.53;;;4.72;;
37907;SDS011;23740;51.550;6.846;2024-01-30T11:44:20;7.28;;;4.90;;
37907;SDS011;23740;51.550;6.846;2024-01-30T11:46:48;7.97;;;5.45;;
37907;SDS011;23740;51.550;6.846;2024-01-30T11:49:17;10.10;;;5.32;;
37907;SDS011;23740;51.550;6.846;2024-01-30T11:51:46;9.48;;;5.50;;
37907;SDS011;23740;51.550;6.846;2024-01-30T11:54:17;8.20;;;5.20;;
37907;SDS011;23740;51.550;6.846;2024-01-30T11:56:46;9.38;;;5.65;;
37907;SDS011;23740;51.550;6.846;2024-01-30T11:59:14;7.63;;;4.85;;
37907;SDS011;23740;51.550;6.846;2024-01-30T12:01:42;9.25;;;5.38;;
37907;SDS011;23740;51.550;6.846;2024-01-30T12:04:10;6.43;;;4.38;;
37907;SDS011;23740;51.550;6.846;2024-01-30T12:06:38;9.70;;;5.82;;
37907;SDS011;23740;51.550;6.846;2024-01-30T12:09:06;9.75;;;4.78;;
37907;SDS011;23740;51.550;6.846;2024-01-30T12:11:43;9.52;;;5.18;;
37907;SDS011;23740;51.550;6.846;2024-01-30T12:14:12;9.75;;;4.90;;
37907;SDS011;23740;51.550;6.846;2024-01-30T12:16:40;10.82;;;6.30;;
37907;SDS011;23740;51.550;6.846;2024-01-30T12:19:09;8.70;;;5.13;;
37907;SDS011;23740;51.550;6.846;2024-01-30T12:21:37;13.02;;;5.00;;
37907;SDS011;23740;51.550;6.846;2024-01-30T12:24:05;11.82;;;5.40;;
37907;SDS011;23740;51.550;6.846;2024-01-30T12:26:35;13.15;;;5.95;;
37907;SDS011;23740;51.550;6.846;2024-01-30T12:29:03;10.95;;;4.60;;
37907;SDS011;23740;51.550;6.846;2024-01-30T12:31:33;10.32;;;4.85;;
37907;SDS011;23740;51.550;6.846;2024-01-30T12:34:01;9.38;;;5.30;;
37907;SDS011;23740;51.550;6.846;2024-01-30T12:36:29;7.72;;;4.13;;
37907;SDS011;23740;51.550;6.846;2024-01-30T12:38:57;10.38;;;4.93;;
37907;SDS011;23740;51.550;6.846;2024-01-30T12:41:26;9.50;;;4.82;;
37907;SDS011;23740;51.550;6.846;2024-01-30T12:43:57;9.95;;;5.05;;
37907;SDS011;23740;51.550;6.846;2024-01-30T12:46:27;11.13;;;5.15;;
37907;SDS011;23740;51.550;6.846;2024-01-30T12:48:57;9.45;;;5.03;;
37907;SDS011;23740;51.550;6.846;2024-01-30T12:51:25;10.50;;;5.57;;
37907;SDS011;23740;51.550;6.846;2024-01-30T12:53:53;12.50;;;6.07;;
37907;SDS011;23740;51.550;6.846;2024-01-30T12:56:21;9.38;;;5.15;;
37907;SDS011;23740;51.550;6.846;2024-01-30T12:58:49;9.30;;;4.88;;
37907;SDS011;23740;51.550;6.846;2024-01-30T13:01:20;11.18;;;4.88;;
37907;SDS011;23740;51.550;6.846;2024-01-30T13:03:49;9.43;;;5.10;;
37907;SDS011;23740;51.550;6.846;2024-01-30T13:06:20;8.00;;;5.25;;
37907;SDS011;23740;51.550;6.846;2024-01-30T13:08:48;9.70;;;5.18;;
37907;SDS011;23740;51.550;6.846;2024-01-30T13:11:16;10.35;;;5.70;;
37907;SDS011;23740;51.550;6.846;2024-01-30T13:13:47;10.10;;;5.40;;
37907;SDS011;23740;51.550;6.846;2024-01-30T13:16:15;7.80;;;4.93;;
37907;SDS011;23740;51.550;6.846;2024-01-30T13:18:43;8.38;;;4.68;;
37907;SDS011;23740;51.550;6.846;2024-01-30T13:21:11;10.23;;;5.47;;
37907;SDS011;23740;51.550;6.846;2024-01-30T13:23:40;9.95;;;5.60;;
37907;SDS011;23740;51.550;6.846;2024-01-30T13:26:08;9.57;;;4.90;;
37907;SDS011;23740;51.550;6.846;2024-01-30T13:28:36;8.70;;;5.18;;
37907;SDS011;23740;51.550;6.846;2024-01-30T13:31:04;11.45;;;5.00;;
37907;SDS011;23740;51.550;6.846;2024-01-30T13:33:33;8.25;;;4.60;;
37907;SDS011;23740;51.550;6.846;2024-01-30T13:36:00;6.03;;;4.20;;
37907;SDS011;23740;51.550;6.846;2024-01-30T13:38:28;7.78;;;4.35;;
37907;SDS011;23740;51.550;6.846;2024-01-30T13:40:58;10.30;;;4.70;;
37907;SDS011;23740;51.550;6.846;2024-01-30T13:43:25;6.38;;;4.20;;
37907;SDS011;23740;51.550;6.846;2024-01-30T13:45:53;8.43;;;5.55;;
37907;SDS011;23740;51.550;6.846;2024-01-30T13:48:21;9.07;;;5.07;;
37907;SDS011;23740;51.550;6.846;2024-01-30T13:50:49;7.85;;;4.22;;
37907;SDS011;23740;51.550;6.846;2024-01-30T13:53:17;8.20;;;4.53;;
37907;SDS011;23740;51.550;6.846;2024-01-30T13:55:45;10.07;;;4.60;;
37907;SDS011;23740;51.550;6.846;2024-01-30T13:58:14;6.25;;;5.00;;
37907;SDS011;23740;51.550;6.846;2024-01-30T14:00:43;7.07;;;4.13;;
37907;SDS011;23740;51.550;6.846;2024-01-30T14:03:11;7.82;;;4.68;;
37907;SDS011;23740;51.550;6.846;2024-01-30T14:05:39;7.88;;;4.85;;
37907;SDS011;23740;51.550;6.846;2024-01-30T14:08:08;7.50;;;4.53;;
37907;SDS011;23740;51.550;6.846;2024-01-30T14:10:36;6.85;;;4.90;;
37907;SDS011;23740;51.550;6.846;2024-01-30T14:13:04;8.25;;;4.80;;
37907;SDS011;23740;51.550;6.846;2024-01-30T14:15:33;6.97;;;4.10;;
37907;SDS011;23740;51.550;6.846;2024-01-30T14:18:01;8.43;;;4.97;;
37907;SDS011;23740;51.550;6.846;2024-01-30T14:20:29;6.70;;;3.60;;
37907;SDS011;23740;51.550;6.846;2024-01-30T14:22:57;9.40;;;4.07;;
37907;SDS011;23740;51.550;6.846;2024-01-30T14:25:25;7.15;;;4.22;;
37907;SDS011;23740;51.550;6.846;2024-01-30T14:27:53;8.15;;;4.60;;
37907;SDS011;23740;51.550;6.846;2024-01-30T14:30:21;6.85;;;4.65;;
37907;SDS011;23740;51.550;6.846;2024-01-30T14:32:50;7.88;;;4.40;;
37907;SDS011;23740;51.550;6.846;2024-01-30T14:35:21;6.90;;;4.63;;
37907;SDS011;23740;51.550;6.846;2024-01-30T14:37:49;5.00;;;3.17;;
37907;SDS011;23740;51.550;6.846;2024-01-30T14:40:17;6.32;;;3.20;;
37907;SDS011;23740;51.550;6.846;2024-01-30T14:42:45;5.80;;;3.13;;
37907;SDS011;23740;51.550;6.846;2024-01-30T14:45:13;5.13;;;3.15;;
37907;SDS011;23740;51.550;6.846;2024-01-30T14:47:42;5.38;;;3.15;;
37907;SDS011;23740;51.550;6.846;2024-01-30T14:50:11;4.65;;;2.97;;
37907;SDS011;23740;51.550;6.846;2024-01-30T14:52:41;5.45;;;2.50;;
37907;SDS011;23740;51.550;6.846;2024-01-30T14:55:11;3.15;;;2.25;;